createdAt,value
2019-01-19T00:02:12.877Z,2.83
2019-01-19T00:05:17.292Z,3.80
2019-01-19T00:08:10.096Z,3.23
2019-01-19T00:10:47.116Z,3.13
2019-01-19T00:13:35.847Z,3.60
2019-01-19T00:16:15.387Z,3.77
2019-01-19T00:19:13.511Z,4.07
2019-01-19T00:22:08.241Z,3.37
2019-01-19T00:24:48.568Z,3.03
2019-01-19T00:28:00.704Z,3.00
2019-01-19T00:31:10.611Z,3.07
2019-01-19T00:34:34.085Z,3.13
2019-01-19T00:37:18.568Z,3.10
2019-01-19T00:40:33.177Z,3.23
2019-01-19T00:43:47.528Z,3.50
2019-01-19T00:46:51.656Z,4.47
2019-01-19T00:49:25.109Z,3.27
2019-01-19T00:52:29.235Z,3.50
2019-01-19T00:55:28.296Z,3.67
2019-01-19T00:58:15.646Z,3.40
2019-01-19T01:01:31.688Z,3.43
2019-01-19T01:04:31.061Z,4.27
2019-01-19T01:07:05.064Z,3.93
2019-01-19T01:09:51.868Z,3.83
2019-01-19T01:13:03.399Z,3.27
2019-01-19T01:16:04.052Z,3.20
2019-01-19T01:19:24.467Z,3.30
2019-01-19T01:22:38.647Z,3.53
2019-01-19T01:25:41.180Z,3.30
2019-01-19T01:28:25.624Z,3.20
2019-01-19T01:31:13.959Z,3.67
2019-01-19T01:33:51.864Z,4.00
2019-01-19T01:36:26.553Z,4.00
2019-01-19T01:39:45.924Z,3.57
2019-01-19T01:42:37.435Z,4.20
2019-01-19T01:45:35.276Z,3.30
2019-01-19T01:48:15.343Z,3.47
2019-01-19T01:51:29.204Z,4.03
2019-01-19T01:54:42.070Z,3.50
2019-01-19T01:57:18.069Z,3.63
2019-01-19T02:00:53.302Z,3.53
2019-01-19T02:03:51.843Z,4.13
2019-01-19T02:06:52.732Z,3.47
2019-01-19T02:09:40.301Z,4.20
2019-01-19T02:12:39.862Z,3.97
2019-01-19T02:15:34.416Z,3.50
2019-01-19T02:18:29.413Z,3.83
2019-01-19T02:21:26.775Z,3.83
2019-01-19T02:24:27.963Z,5.20
2019-01-19T02:27:16.693Z,3.80
2019-01-19T02:30:41.779Z,3.77
2019-01-19T02:33:19.401Z,3.93
2019-01-19T02:36:51.623Z,3.93
2019-01-19T02:39:40.347Z,3.80
2019-01-19T02:42:48.013Z,3.93
2019-01-19T02:45:40.568Z,4.97
2019-01-19T02:48:30.753Z,4.40
2019-01-19T02:51:19.603Z,4.27
2019-01-19T02:54:39.963Z,3.93
2019-01-19T02:57:43.208Z,4.17
2019-01-19T03:00:37.899Z,4.07
2019-01-19T03:03:46.353Z,4.57
2019-01-19T03:06:55.835Z,3.90
2019-01-19T03:09:42.886Z,3.30
2019-01-19T03:12:56.827Z,4.30
2019-01-19T03:16:38.240Z,4.70
2019-01-19T03:20:07.768Z,4.00
2019-01-19T03:22:51.547Z,3.97
2019-01-19T03:26:14.535Z,3.87
2019-01-19T03:29:30.734Z,3.80
2019-01-19T03:32:28.825Z,4.20
2019-01-19T03:35:23.839Z,4.00
2019-01-19T03:38:12.558Z,3.20
2019-01-19T03:41:30.084Z,3.93
2019-01-19T03:44:44.237Z,3.30
2019-01-19T03:47:57.316Z,3.40
2019-01-19T03:51:23.248Z,4.40
2019-01-19T03:54:14.724Z,4.00
2019-01-19T03:57:22.814Z,3.57
2019-01-19T04:00:40.564Z,4.70
2019-01-19T04:03:53.912Z,4.20
2019-01-19T04:06:50.949Z,3.87
2019-01-19T04:10:03.767Z,4.20
2019-01-19T04:13:08.709Z,3.87
2019-01-19T04:16:00.095Z,4.08
2019-01-19T04:18:53.374Z,5.30
2019-01-19T04:21:42.276Z,3.70
2019-01-19T04:24:22.606Z,4.70
2019-01-19T04:26:56.062Z,4.03
2019-01-19T04:29:26.336Z,4.73
2019-01-19T04:31:56.028Z,4.00
2019-01-19T04:34:25.806Z,4.07
2019-01-19T04:36:55.472Z,4.07
2019-01-19T04:39:25.173Z,4.83
2019-01-19T04:41:55.394Z,4.73
2019-01-19T04:44:25.736Z,4.80
2019-01-19T04:46:55.391Z,5.37
2019-01-19T04:49:24.991Z,5.40
2019-01-19T04:51:55.237Z,4.70
2019-01-19T04:54:25.565Z,4.57
2019-01-19T04:56:55.236Z,5.30
2019-01-19T04:59:25.445Z,5.30
2019-01-19T05:01:55.793Z,4.97
2019-01-19T05:04:26.108Z,5.20
2019-01-19T05:06:56.420Z,5.50
2019-01-19T05:09:26.740Z,5.97
2019-01-19T05:11:56.414Z,6.20
2019-01-19T05:14:26.655Z,5.77
2019-01-19T05:16:56.347Z,6.40
2019-01-19T05:19:25.932Z,6.30
2019-01-19T05:21:55.532Z,5.90
2019-01-19T05:24:25.781Z,6.37
2019-01-19T05:26:55.428Z,6.50
2019-01-19T05:29:25.661Z,6.50
2019-01-19T05:31:56.001Z,6.37
2019-01-19T05:34:26.329Z,7.10
2019-01-19T05:36:55.975Z,7.13
2019-01-19T05:39:26.213Z,6.63
2019-01-19T05:41:55.881Z,7.03
2019-01-19T05:44:26.240Z,7.07
2019-01-19T05:46:55.893Z,6.77
2019-01-19T05:49:26.123Z,8.47
2019-01-19T05:51:56.541Z,7.43
2019-01-19T05:54:26.903Z,7.23
2019-01-19T05:56:56.567Z,8.43
2019-01-19T05:59:26.137Z,7.63
2019-01-19T06:01:55.836Z,6.97
2019-01-19T06:04:26.044Z,8.23
2019-01-19T06:06:56.373Z,9.53
2019-01-19T06:09:26.059Z,9.40
2019-01-19T06:11:56.276Z,7.77
2019-01-19T06:14:25.952Z,7.90
2019-01-19T06:16:55.536Z,9.37
2019-01-19T06:19:26.176Z,7.80
2019-01-19T06:21:58.753Z,8.23
2019-01-19T06:24:29.085Z,9.20
2019-01-19T06:26:59.407Z,7.67
2019-01-19T06:29:29.095Z,8.63
2019-01-19T06:31:59.308Z,8.83
2019-01-19T06:34:29.644Z,7.35
2019-01-19T06:37:00.154Z,9.37
2019-01-19T06:39:29.917Z,8.05
2019-01-19T06:42:00.067Z,8.43
2019-01-19T06:44:30.391Z,9.05
2019-01-19T06:47:00.716Z,9.03
2019-01-19T06:49:31.060Z,8.87
2019-01-19T06:52:01.381Z,9.30
2019-01-19T06:54:31.807Z,9.03
2019-01-19T06:57:02.127Z,9.53
2019-01-19T06:59:32.479Z,10.30
2019-01-19T07:02:02.789Z,8.73
2019-01-19T07:04:33.116Z,9.45
2019-01-19T07:07:03.443Z,9.43
2019-01-19T07:09:33.785Z,9.83
2019-01-19T07:12:04.283Z,9.17
2019-01-19T07:14:34.604Z,9.03
2019-01-19T07:17:04.932Z,9.27
2019-01-19T07:19:35.371Z,8.30
2019-01-19T07:22:05.680Z,8.30
2019-01-19T07:24:36.013Z,9.07
2019-01-19T07:27:06.353Z,9.40
2019-01-19T07:29:36.040Z,8.50
2019-01-19T07:32:06.268Z,8.57
2019-01-19T07:34:35.940Z,7.83
2019-01-19T07:37:09.930Z,8.73
2019-01-19T07:39:37.558Z,8.10
2019-01-19T07:42:07.781Z,8.07
2019-01-19T07:44:37.471Z,7.93
2019-01-19T07:47:07.907Z,7.80
2019-01-19T07:49:38.242Z,6.97
2019-01-19T07:52:08.548Z,8.13
2019-01-19T07:54:38.237Z,6.97
2019-01-19T07:57:08.479Z,7.33
2019-01-19T07:59:38.824Z,7.28
2019-01-19T08:02:09.160Z,7.13
2019-01-19T08:04:38.823Z,6.90
2019-01-19T08:07:09.071Z,6.80
2019-01-19T08:09:39.433Z,7.50
2019-01-19T08:12:09.125Z,6.83
2019-01-19T08:14:38.842Z,6.43
2019-01-19T08:17:09.469Z,6.93
2019-01-19T08:19:39.756Z,7.10
2019-01-19T08:22:10.116Z,6.80
2019-01-19T08:24:39.787Z,7.10
2019-01-19T08:27:09.496Z,7.83
2019-01-19T08:29:39.124Z,7.50
2019-01-19T08:32:08.728Z,7.30
2019-01-19T08:34:38.316Z,7.67
2019-01-19T08:37:08.680Z,6.97
2019-01-19T08:39:38.420Z,6.97
2019-01-19T08:42:07.990Z,7.10
2019-01-19T08:44:37.601Z,7.07
2019-01-19T08:47:07.198Z,7.77
2019-01-19T08:49:36.817Z,6.80
2019-01-19T08:52:07.045Z,7.00
2019-01-19T08:54:36.708Z,6.40
2019-01-19T08:57:06.303Z,6.97
2019-01-19T08:59:36.545Z,6.67
2019-01-19T09:02:06.892Z,6.80
2019-01-19T09:04:36.563Z,7.35
2019-01-19T09:07:06.149Z,7.07
2019-01-19T09:09:35.768Z,6.77
2019-01-19T09:12:05.999Z,7.53
2019-01-19T09:14:35.668Z,6.23
2019-01-19T09:17:06.837Z,6.73
2019-01-19T09:19:36.512Z,6.83
2019-01-19T09:22:06.752Z,6.63
2019-01-19T09:24:36.449Z,6.53
2019-01-19T09:27:06.036Z,7.53
2019-01-19T09:29:35.609Z,6.17
2019-01-19T09:32:06.001Z,7.73
2019-01-19T09:34:36.324Z,6.97
2019-01-19T09:37:06.035Z,6.47
2019-01-19T09:39:35.708Z,7.27
2019-01-19T09:42:05.311Z,7.03
2019-01-19T09:44:35.548Z,6.73
2019-01-19T09:47:05.326Z,7.50
2019-01-19T09:49:35.016Z,7.27
2019-01-19T09:52:04.612Z,7.70
2019-01-19T09:54:34.196Z,8.10
2019-01-19T09:57:04.438Z,7.67
2019-01-19T09:59:34.107Z,7.65
2019-01-19T10:02:03.679Z,6.93
2019-01-19T10:04:33.915Z,6.73
2019-01-19T10:07:03.627Z,7.50
2019-01-19T10:09:33.201Z,7.40
2019-01-19T10:12:03.466Z,7.70
2019-01-19T10:14:34.036Z,7.10
2019-01-19T10:17:03.639Z,7.43
2019-01-19T10:19:33.928Z,6.93
2019-01-19T10:22:04.376Z,7.85
2019-01-19T10:24:34.704Z,7.67
2019-01-19T10:27:04.756Z,7.93
2019-01-19T10:29:34.320Z,6.78
2019-01-19T10:32:04.580Z,7.60
2019-01-19T10:34:34.912Z,7.87
2019-01-19T10:37:04.645Z,7.67
2019-01-19T10:39:34.244Z,8.00
2019-01-19T10:42:03.926Z,7.80
2019-01-19T10:44:33.529Z,7.87
2019-01-19T10:47:03.116Z,8.60
2019-01-19T10:49:32.707Z,9.60
2019-01-19T10:52:02.948Z,9.30
2019-01-19T10:54:32.641Z,7.93
2019-01-19T10:57:02.872Z,8.53
2019-01-19T10:59:32.563Z,8.50
2019-01-19T11:02:02.631Z,10.00
2019-01-19T11:04:32.264Z,7.75
2019-01-19T11:07:01.836Z,8.30
2019-01-19T11:09:31.407Z,8.53
2019-01-19T11:12:01.017Z,8.70
2019-01-19T11:14:30.636Z,8.70
2019-01-19T11:17:00.229Z,8.83
2019-01-19T11:19:29.847Z,9.37
2019-01-19T11:22:00.097Z,9.20
2019-01-19T11:24:29.764Z,9.53
2019-01-19T11:26:59.353Z,8.93
2019-01-19T11:29:28.923Z,10.20
2019-01-19T11:31:58.527Z,10.67
2019-01-19T11:34:28.780Z,8.80
2019-01-19T11:36:58.551Z,10.57
2019-01-19T11:39:28.225Z,9.57
2019-01-19T11:41:58.508Z,9.83
2019-01-19T11:44:28.251Z,8.90
2019-01-19T11:46:58.144Z,9.73
2019-01-19T11:49:27.728Z,8.93
2019-01-19T11:51:57.992Z,9.53
2019-01-19T11:54:27.852Z,8.90
2019-01-19T11:56:57.420Z,10.03
2019-01-19T11:59:27.078Z,9.87
2019-01-19T12:01:56.652Z,9.73
2019-01-19T12:04:26.313Z,10.13
2019-01-19T12:06:56.563Z,9.87
2019-01-19T12:09:26.331Z,9.67
2019-01-19T12:11:55.960Z,10.17
2019-01-19T12:14:25.567Z,9.20
2019-01-19T12:16:58.168Z,9.73
2019-01-19T12:19:27.848Z,10.63
2019-01-19T12:21:58.108Z,10.70
2019-01-19T12:24:27.798Z,11.07
2019-01-19T12:26:57.461Z,10.70
2019-01-19T12:29:27.023Z,11.47
2019-01-19T12:31:57.335Z,10.93
2019-01-19T12:34:27.028Z,11.47
2019-01-19T12:36:57.278Z,11.73
2019-01-19T12:39:26.931Z,11.22
2019-01-19T12:41:56.513Z,11.70
2019-01-19T12:44:26.112Z,11.53
2019-01-19T12:46:57.007Z,11.17
2019-01-19T12:49:26.640Z,10.27
2019-01-19T12:51:57.860Z,10.20
2019-01-19T12:54:27.545Z,10.20
2019-01-19T12:56:57.792Z,10.63
2019-01-19T12:59:28.096Z,10.20
2019-01-19T13:01:57.788Z,9.93
2019-01-19T13:04:27.425Z,9.80
2019-01-19T13:07:07.949Z,10.77
2019-01-19T13:09:42.321Z,9.90
2019-01-19T13:12:49.055Z,9.70
2019-01-19T13:15:46.012Z,9.43
2019-01-19T13:18:23.260Z,9.47
2019-01-19T13:21:27.883Z,9.27
2019-01-19T13:24:25.193Z,9.40
2019-01-19T13:26:58.420Z,10.20
2019-01-19T13:29:45.539Z,9.43
2019-01-19T13:32:19.955Z,9.17
2019-01-19T13:35:43.026Z,9.03
2019-01-19T13:38:30.668Z,9.17
2019-01-19T13:41:59.674Z,8.73
2019-01-19T13:44:47.327Z,8.13
2019-01-19T13:47:51.244Z,8.77
2019-01-19T13:50:41.485Z,7.83
2019-01-19T13:53:39.195Z,8.33
2019-01-19T13:56:47.627Z,8.10
2019-01-19T13:59:36.342Z,7.70
2019-01-19T14:02:37.515Z,7.37
2019-01-19T14:05:41.196Z,7.63
2019-01-19T14:08:36.207Z,7.53
2019-01-19T14:11:11.935Z,7.23
2019-01-19T14:13:51.511Z,7.50
2019-01-19T14:16:38.892Z,6.63
2019-01-19T14:19:45.983Z,6.80
2019-01-19T14:22:55.989Z,6.60
2019-01-19T14:26:16.432Z,6.83
2019-01-19T14:29:17.348Z,7.47
2019-01-19T14:32:43.878Z,7.20
2019-01-19T14:35:42.634Z,7.37
2019-01-19T14:38:34.512Z,7.60
2019-01-19T14:41:23.163Z,6.77
2019-01-19T14:44:22.179Z,7.07
2019-01-19T14:47:05.834Z,6.97
2019-01-19T14:49:53.115Z,7.57
2019-01-19T14:52:31.701Z,6.57
2019-01-19T14:55:20.373Z,6.97
2019-01-19T14:58:11.812Z,6.80
2019-01-19T15:01:08.831Z,6.40
2019-01-19T15:04:09.679Z,6.27
2019-01-19T15:07:13.344Z,6.20
2019-01-19T15:09:55.578Z,5.67
2019-01-19T15:12:47.279Z,6.67
2019-01-19T15:15:41.181Z,7.13
2019-01-19T15:18:29.139Z,7.07
2019-01-19T15:21:17.792Z,6.30
2019-01-19T15:24:34.400Z,7.30
2019-01-19T15:27:51.568Z,6.67
2019-01-19T15:30:34.938Z,6.63
2019-01-19T15:33:22.460Z,6.80
2019-01-19T15:36:11.192Z,6.90
2019-01-19T15:38:47.751Z,8.03
2019-01-19T15:42:08.032Z,7.67
2019-01-19T15:45:20.208Z,7.33
2019-01-19T15:48:30.976Z,7.17
2019-01-19T15:51:08.525Z,7.10
2019-01-19T15:54:13.741Z,6.70
2019-01-19T15:57:01.288Z,6.27
2019-01-19T15:59:55.496Z,6.30
2019-01-19T16:03:15.451Z,6.57
2019-01-19T16:06:27.243Z,7.43
2019-01-19T16:09:08.734Z,5.77
2019-01-19T16:12:04.912Z,6.63
2019-01-19T16:14:53.668Z,6.47
2019-01-19T16:17:41.283Z,6.10
2019-01-19T16:20:29.107Z,6.57
2019-01-19T16:23:20.312Z,7.93
2019-01-19T16:26:07.559Z,6.97
2019-01-19T16:28:58.962Z,6.37
2019-01-19T16:31:53.691Z,7.07
2019-01-19T16:34:40.184Z,6.77
2019-01-19T16:37:13.092Z,6.83
2019-01-19T16:40:22.304Z,7.30
2019-01-19T16:43:04.232Z,6.93
2019-01-19T16:45:55.992Z,8.07
2019-01-19T16:48:35.577Z,8.20
2019-01-19T16:51:22.277Z,8.60
2019-01-19T16:53:58.307Z,8.67
2019-01-19T16:57:11.035Z,7.60
2019-01-19T17:00:22.325Z,7.80
2019-01-19T17:03:09.759Z,8.73
2019-01-19T17:06:09.173Z,8.17
2019-01-19T17:08:56.440Z,8.07
2019-01-19T17:11:47.848Z,8.33
2019-01-19T17:14:42.672Z,8.30
2019-01-19T17:17:49.584Z,9.60
2019-01-19T17:20:23.702Z,9.43
2019-01-19T17:22:57.913Z,8.10
2019-01-19T17:25:49.566Z,9.20
2019-01-19T17:28:48.532Z,8.67
2019-01-19T17:31:42.737Z,9.07
2019-01-19T17:34:34.267Z,8.50
2019-01-19T17:37:29.476Z,9.10
2019-01-19T17:40:36.714Z,7.97
2019-01-19T17:43:25.958Z,8.37
2019-01-19T17:46:17.648Z,7.70
2019-01-19T17:49:18.872Z,7.83
2019-01-19T17:52:20.108Z,8.47
2019-01-19T17:55:27.320Z,8.83
2019-01-19T17:58:28.184Z,7.90
2019-01-19T18:01:34.578Z,8.03
2019-01-19T18:04:22.687Z,7.57
2019-01-19T18:07:06.492Z,7.47
2019-01-19T18:09:49.154Z,6.92
2019-01-19T18:12:32.008Z,8.17
2019-01-19T18:15:26.984Z,7.17
2019-01-19T18:18:21.678Z,7.43
2019-01-19T18:20:59.946Z,8.33
2019-01-19T18:23:35.487Z,8.17
2019-01-19T18:26:49.640Z,8.03
2019-01-19T18:29:56.615Z,9.00
2019-01-19T18:32:37.832Z,9.47
2019-01-19T18:35:45.813Z,10.27
2019-01-19T18:38:26.139Z,10.20
2019-01-19T18:41:19.124Z,8.73
2019-01-19T18:44:05.502Z,8.50
2019-01-19T18:46:44.288Z,8.37
2019-01-19T18:49:48.144Z,8.00
2019-01-19T18:53:11.580Z,7.93
2019-01-19T18:56:03.343Z,8.90
2019-01-19T18:59:21.756Z,8.57
2019-01-19T19:02:07.575Z,9.30
2019-01-19T19:05:02.394Z,8.83
2019-01-19T19:07:44.575Z,8.40
2019-01-19T19:10:44.895Z,8.23
2019-01-19T19:13:40.704Z,8.43
2019-01-19T19:16:32.441Z,8.80
2019-01-19T19:19:19.728Z,9.50
2019-01-19T19:22:11.151Z,9.43
2019-01-19T19:25:17.278Z,8.80
2019-01-19T19:28:37.964Z,9.33
2019-01-19T19:31:26.708Z,9.20
2019-01-19T19:34:02.486Z,9.50
2019-01-19T19:36:58.166Z,10.67
2019-01-19T19:39:52.987Z,9.63
2019-01-19T19:42:44.401Z,9.27
2019-01-19T19:45:48.460Z,9.70
2019-01-19T19:49:08.307Z,10.03
2019-01-19T19:51:58.319Z,9.40
2019-01-19T19:54:28.802Z,9.17
2019-01-19T19:56:58.707Z,9.57
2019-01-19T19:59:28.300Z,9.23
2019-01-19T20:01:57.969Z,9.40
2019-01-19T20:04:29.685Z,8.73
2019-01-19T20:07:00.281Z,9.13
2019-01-19T20:09:30.308Z,10.07
2019-01-19T20:12:06.607Z,9.73
2019-01-19T20:14:37.186Z,9.73
2019-01-19T20:17:07.198Z,9.87
2019-01-19T20:19:37.432Z,9.17
2019-01-19T20:22:07.181Z,9.27
2019-01-19T20:24:36.744Z,9.63
2019-01-19T20:27:06.320Z,8.97
2019-01-19T20:29:35.923Z,9.63
2019-01-19T20:32:05.552Z,9.97
2019-01-19T20:34:35.809Z,10.00
2019-01-19T20:37:05.488Z,11.20
2019-01-19T20:39:35.104Z,10.20
2019-01-19T20:42:05.107Z,10.00
2019-01-19T20:44:34.729Z,10.87
2019-01-19T20:47:04.535Z,11.93
2019-01-19T20:49:34.218Z,11.67
2019-01-19T20:52:06.652Z,11.50
2019-01-19T20:54:36.256Z,10.53
2019-01-19T20:57:05.915Z,10.87
2019-01-19T20:59:35.501Z,11.83
2019-01-19T21:02:05.175Z,10.27
2019-01-19T21:04:35.154Z,10.20
2019-01-19T21:07:04.732Z,10.13
2019-01-19T21:09:34.372Z,10.03
2019-01-19T21:12:05.228Z,10.20
2019-01-19T21:14:35.212Z,10.23
2019-01-19T21:17:04.868Z,10.17
2019-01-19T21:19:34.503Z,9.80
2019-01-19T21:22:04.958Z,9.70
2019-01-19T21:24:35.272Z,10.70
2019-01-19T21:27:05.332Z,9.83
2019-01-19T21:29:34.908Z,10.00
2019-01-19T21:32:04.642Z,10.10
2019-01-19T21:34:34.236Z,9.40
2019-01-19T21:37:04.891Z,10.43
2019-01-19T21:39:35.269Z,10.98
2019-01-19T21:42:04.940Z,9.57
2019-01-19T21:44:35.244Z,9.97
2019-01-19T21:47:04.916Z,9.30
2019-01-19T21:49:35.180Z,10.88
2019-01-19T21:52:05.388Z,9.87
2019-01-19T21:54:35.646Z,9.23
2019-01-19T21:57:05.375Z,9.57
2019-01-19T21:59:35.704Z,10.73
2019-01-19T22:02:05.416Z,10.00
2019-01-19T22:04:35.024Z,9.60
2019-01-19T22:07:05.263Z,10.60
2019-01-19T22:09:35.646Z,10.58
2019-01-19T22:12:06.048Z,10.03
2019-01-19T22:14:35.700Z,11.33
2019-01-19T22:17:05.980Z,9.87
2019-01-19T22:19:35.777Z,10.20
2019-01-19T22:22:05.418Z,10.10
2019-01-19T22:24:35.652Z,10.37
2019-01-19T22:27:06.419Z,9.80
2019-01-19T22:29:36.019Z,10.10
2019-01-19T22:32:05.629Z,10.70
2019-01-19T22:34:35.219Z,9.80
2019-01-19T22:37:05.035Z,9.97
2019-01-19T22:39:34.623Z,8.53
2019-01-19T22:42:04.312Z,10.07
2019-01-19T22:44:34.572Z,10.07
2019-01-19T22:47:04.327Z,9.60
2019-01-19T22:49:34.564Z,9.87
2019-01-19T22:52:04.912Z,9.60
2019-01-19T22:54:35.223Z,9.50
2019-01-19T22:57:05.111Z,10.63
2019-01-19T22:59:34.737Z,9.00
2019-01-19T23:02:11.078Z,10.00
2019-01-19T23:04:41.401Z,9.77
2019-01-19T23:07:11.720Z,10.10
2019-01-19T23:09:42.092Z,8.83
2019-01-19T23:12:12.396Z,9.80
2019-01-19T23:14:42.928Z,10.20
2019-01-19T23:17:12.600Z,10.50
2019-01-19T23:19:42.203Z,10.60
2019-01-19T23:22:12.445Z,11.73
2019-01-19T23:24:42.769Z,10.03
2019-01-19T23:27:13.429Z,11.30
2019-01-19T23:29:43.752Z,10.13
2019-01-19T23:32:14.108Z,10.87
2019-01-19T23:34:44.424Z,13.47
2019-01-19T23:37:14.151Z,11.77
2019-01-19T23:39:44.399Z,12.60
2019-01-19T23:42:14.757Z,13.23
2019-01-19T23:44:44.416Z,12.17
2019-01-19T23:47:13.985Z,12.87
2019-01-19T23:49:44.236Z,11.70
2019-01-19T23:52:14.544Z,12.07
2019-01-19T23:54:44.903Z,10.60
2019-01-19T23:57:15.228Z,11.07
2019-01-19T23:59:44.912Z,11.50
